Time;durP1;ratioP1;P1;durP2;ratioP2;P2;SDS_P1;SDS_P2;PMS_P1;PMS_P2;Temp;Humidity;BMP_temperature;BMP_pressure;BME280_temperature;BME280_humidity;BME280_pressure;Samples;Min_cycle;Max_cycle;Signal;HPM_P1;HPM_P2
2022/08/17 00:02:14;;;;;;;7.00;6.30;;;;;;;21.07;65.43;100286.22;5055793;28;20213;-81
2022/08/17 00:04:42;;;;;;;6.60;6.00;;;;;;;21.04;65.74;100278.44;5052625;28;20300;-82
2022/08/17 00:07:08;;;;;;;6.07;5.50;;;;;;;21.02;65.92;100286.72;5053788;28;20210;-81
2022/08/17 00:09:35;;;;;;;7.40;6.70;;;;;;;21.00;66.04;100282.50;5052648;28;20657;-82
2022/08/17 00:12:03;;;;;;;6.35;5.75;;;;;;;20.97;65.93;100285.56;5052698;28;20228;-79
2022/08/17 00:14:31;;;;;;;7.37;6.60;;;;;;;20.92;66.04;100277.97;5051976;28;20228;-83
2022/08/17 00:16:58;;;;;;;6.57;6.03;;;;;;;20.91;66.21;100281.69;5052083;28;20209;-81
2022/08/17 00:19:25;;;;;;;6.90;5.90;;;;;;;20.91;66.19;100284.41;5052831;28;20212;-80
2022/08/17 00:21:56;;;;;;;6.23;5.63;;;;;;;20.93;66.34;100287.78;5051705;28;20200;-81
2022/08/17 00:24:23;;;;;;;6.93;6.23;;;;;;;20.94;66.34;100280.50;5049532;28;20220;-82
2022/08/17 00:26:49;;;;;;;7.43;6.57;;;;;;;20.94;66.16;100277.81;5051145;28;20225;-81
2022/08/17 00:29:16;;;;;;;7.32;6.65;;;;;;;20.94;66.28;100280.50;5052741;28;20208;-81
2022/08/17 00:31:43;;;;;;;12.75;6.80;;;;;;;20.92;66.29;100277.13;5047005;28;20225;-81
2022/08/17 00:34:10;;;;;;;7.10;6.40;;;;;;;20.90;66.46;100284.56;5046536;28;20224;-82
2022/08/17 00:36:37;;;;;;;6.75;6.20;;;;;;;20.86;66.42;100280.53;5047497;28;20216;-82
2022/08/17 00:39:04;;;;;;;6.83;6.17;;;;;;;20.78;66.31;100286.81;5050469;28;20209;-81
2022/08/17 00:41:31;;;;;;;7.30;6.67;;;;;;;20.71;66.64;100280.38;5052597;28;20672;-81
2022/08/17 00:44:01;;;;;;;6.90;6.20;;;;;;;20.65;67.03;100276.50;5049261;28;20258;-84
2022/08/17 00:46:32;;;;;;;7.10;6.40;;;;;;;20.60;67.09;100272.63;5047484;28;20265;-83
2022/08/17 00:49:00;;;;;;;7.07;6.47;;;;;;;20.56;67.11;100265.84;5056885;28;20207;-81
2022/08/17 00:51:31;;;;;;;7.90;6.13;;;;;;;20.53;67.57;100272.44;5052064;28;20226;-82
2022/08/17 00:54:02;;;;;;;7.87;6.60;;;;;;;20.52;67.72;100270.75;5054986;28;20219;-84
2022/08/17 00:56:34;;;;;;;7.03;6.43;;;;;;;20.52;67.54;100278.88;5053743;28;20225;-82
2022/08/17 00:59:02;;;;;;;7.37;6.63;;;;;;;20.47;67.66;100272.28;5062230;28;20206;-82
2022/08/17 01:01:29;;;;;;;6.67;6.07;;;;;;;20.41;67.77;100271.97;5049562;28;20240;-83
2022/08/17 01:03:56;;;;;;;7.43;6.63;;;;;;;20.36;68.02;100281.56;5049784;28;20235;-80
2022/08/17 01:06:25;;;;;;;7.10;6.40;;;;;;;20.31;68.14;100279.34;5051585;28;20209;-82
2022/08/17 01:08:54;;;;;;;7.10;6.50;;;;;;;20.28;68.37;100268.88;5045224;28;20219;-80
2022/08/17 01:11:20;;;;;;;7.10;6.47;;;;;;;20.27;68.49;100279.84;5055109;28;20223;-81
2022/08/17 01:13:48;;;;;;;7.27;6.33;;;;;;;20.25;68.48;100279.16;5052524;28;20232;-82
2022/08/17 01:16:18;;;;;;;6.57;5.93;;;;;;;20.21;68.68;100278.69;5045014;28;20215;-81
2022/08/17 01:18:47;;;;;;;7.10;6.40;;;;;;;20.15;68.59;100275.78;5051469;28;20216;-82
2022/08/17 01:21:20;;;;;;;6.80;6.20;;;;;;;20.11;69.01;100280.69;5044219;28;20588;-82
2022/08/17 01:23:49;;;;;;;8.83;6.50;;;;;;;20.08;68.86;100276.44;5046915;28;20722;-81
2022/08/17 01:26:16;;;;;;;6.73;5.53;;;;;;;20.04;69.01;100274.28;5044003;28;20210;-81
2022/08/17 01:28:43;;;;;;;6.60;6.00;;;;;;;20.00;69.17;100270.22;5051969;28;20206;-81
2022/08/17 01:31:10;;;;;;;13.10;6.20;;;;;;;19.95;69.21;100269.84;5047339;28;20227;-80
2022/08/17 01:33:37;;;;;;;7.17;6.47;;;;;;;19.93;69.28;100274.56;5045729;28;20251;-81
2022/08/17 01:36:06;;;;;;;7.53;6.73;;;;;;;19.93;69.49;100270.00;5044425;28;20202;-80
2022/08/17 01:38:33;;;;;;;7.37;6.67;;;;;;;19.95;69.68;100273.41;5051268;28;20585;-82
2022/08/17 01:41:03;;;;;;;8.07;7.20;;;;;;;19.95;69.84;100273.41;5052281;28;20202;-81
2022/08/17 01:43:37;;;;;;;7.13;6.53;;;;;;;19.94;69.65;100276.28;5047433;28;20240;-81
2022/08/17 01:46:05;;;;;;;7.70;6.40;;;;;;;19.92;69.61;100284.53;5045528;28;20193;-81
2022/08/17 01:48:34;;;;;;;7.50;6.67;;;;;;;19.88;69.66;100283.22;5053450;28;20210;-82
2022/08/17 01:51:01;;;;;;;7.10;6.40;;;;;;;19.87;69.65;100292.31;5050912;28;20235;-80
2022/08/17 01:53:31;;;;;;;7.20;6.43;;;;;;;19.88;70.12;100290.47;5044735;28;20233;-83
2022/08/17 01:56:05;;;;;;;7.27;6.63;;;;;;;19.88;70.09;100293.16;5044536;28;20268;-84
2022/08/17 01:58:32;;;;;;;8.57;7.13;;;;;;;19.86;69.90;100289.78;5052795;28;20232;-83
2022/08/17 02:00:59;;;;;;;8.50;7.77;;;;;;;19.86;70.15;100293.34;5047142;28;20636;-82
2022/08/17 02:03:26;;;;;;;8.03;6.63;;;;;;;19.87;70.30;100297.72;5050774;28;20228;-83
2022/08/17 02:05:53;;;;;;;8.37;7.40;;;;;;;19.87;70.19;100286.91;5048786;28;20214;-82
2022/08/17 02:08:21;;;;;;;8.03;7.43;;;;;;;19.85;70.64;100288.94;5043188;28;20205;-84
2022/08/17 02:10:50;;;;;;;8.33;7.43;;;;;;;19.85;70.80;100294.34;5050330;28;20229;-81
2022/08/17 02:13:19;;;;;;;7.80;7.07;;;;;;;19.83;70.82;100288.25;5050986;28;20229;-82
2022/08/17 02:15:46;;;;;;;7.93;7.10;;;;;;;19.82;70.83;100294.66;5051242;28;20211;-82
2022/08/17 02:18:13;;;;;;;8.03;7.33;;;;;;;19.81;70.81;100292.97;5044849;28;20884;-84
2022/08/17 02:20:41;;;;;;;8.13;7.07;;;;;;;19.80;70.86;100293.13;5050698;28;20291;-83
2022/08/17 02:23:10;;;;;;;7.83;7.00;;;;;;;19.78;70.62;100285.19;5052166;28;20232;-82
2022/08/17 02:25:39;;;;;;;9.27;7.50;;;;;;;19.77;70.71;100284.34;5053262;28;20691;-83
2022/08/17 02:28:06;;;;;;;7.63;7.03;;;;;;;19.76;70.60;100288.06;5053022;28;20208;-82
2022/08/17 02:30:34;;;;;;;7.70;7.00;;;;;;;19.74;70.58;100286.53;5052301;28;20546;-83
2022/08/17 02:33:01;;;;;;;8.40;7.60;;;;;;;19.66;70.48;100289.22;5036025;28;20619;-82
2022/08/17 02:35:27;;;;;;;8.03;7.33;;;;;;;19.59;70.87;100282.78;5036459;28;20210;-82
2022/08/17 02:37:54;;;;;;;8.30;6.80;;;;;;;19.50;70.89;100276.50;5036359;28;20570;-83
2022/08/17 02:40:20;;;;;;;8.13;7.43;;;;;;;19.47;71.35;100284.06;5040766;28;20209;-82
2022/08/17 02:42:48;;;;;;;7.70;7.10;;;;;;;19.43;71.63;100281.69;5056332;28;20225;-83
2022/08/17 02:45:18;;;;;;;7.87;7.27;;;;;;;19.43;71.66;100283.53;5056588;28;20636;-83
2022/08/17 02:47:46;;;;;;;7.40;6.80;;;;;;;19.43;71.68;100284.38;5056381;28;20196;-83
2022/08/17 02:50:16;;;;;;;8.20;7.40;;;;;;;19.43;71.53;100268.19;5055742;28;20208;-83
2022/08/17 02:52:44;;;;;;;7.73;7.00;;;;;;;19.43;71.56;100272.72;5056526;28;20236;-83
2022/08/17 02:55:13;;;;;;;8.27;6.63;;;;;;;19.41;71.67;100269.34;5055810;28;20213;-83
2022/08/17 02:57:39;;;;;;;7.93;7.30;;;;;;;19.38;71.39;100275.06;5055289;28;20211;-84
2022/08/17 03:00:10;;;;;;;7.33;6.57;;;;;;;19.33;71.48;100270.16;5056142;28;20208;-83
2022/08/17 03:02:38;;;;;;;7.73;7.03;;;;;;;19.29;71.77;100276.91;5055834;28;20253;-83
2022/08/17 03:05:07;;;;;;;8.37;6.97;;;;;;;19.27;72.14;100275.38;5056208;28;20215;-83
2022/08/17 03:07:34;;;;;;;7.70;7.03;;;;;;;19.26;71.99;100276.38;5055467;28;20208;-82
2022/08/17 03:10:01;;;;;;;8.23;7.30;;;;;;;19.25;71.95;100274.69;5055621;28;20201;-83
2022/08/17 03:12:29;;;;;;;8.10;7.33;;;;;;;19.25;72.08;100282.78;5055788;28;20692;-82
2022/08/17 03:14:56;;;;;;;8.07;7.37;;;;;;;19.24;71.86;100278.38;5056506;28;20220;-82
2022/08/17 03:17:22;;;;;;;7.33;6.47;;;;;;;19.23;71.77;100282.09;5056768;28;20211;-83
2022/08/17 03:19:49;;;;;;;8.87;7.60;;;;;;;19.22;71.84;100275.84;5056549;28;20219;-83
2022/08/17 03:22:17;;;;;;;7.23;6.63;;;;;;;19.23;71.73;100287.50;5056507;28;20677;-82
2022/08/17 03:24:44;;;;;;;6.67;6.07;;;;;;;19.21;71.75;100281.41;5056705;28;20721;-82
2022/08/17 03:27:10;;;;;;;7.07;6.33;;;;;;;19.22;71.78;100278.53;5056801;28;20298;-83
2022/08/17 03:29:37;;;;;;;8.90;7.23;;;;;;;19.20;71.62;100275.16;5055859;28;20212;-82
2022/08/17 03:32:11;;;;;;;7.70;7.00;;;;;;;19.20;71.72;100274.31;5038699;28;20232;-82
2022/08/17 03:34:38;;;;;;;7.93;7.23;;;;;;;19.19;71.63;100276.16;5051304;28;20240;-84
2022/08/17 03:37:04;;;;;;;8.17;7.37;;;;;;;19.19;71.65;100278.88;5056295;28;20208;-82
2022/08/17 03:39:32;;;;;;;9.03;8.20;;;;;;;19.19;71.55;100284.25;5056621;28;20215;-82
2022/08/17 03:42:02;;;;;;;8.47;7.60;;;;;;;19.16;71.28;100281.91;5056727;28;20224;-82
2022/08/17 03:44:29;;;;;;;7.27;6.57;;;;;;;19.15;71.10;100274.81;5036408;28;20233;-84
2022/08/17 03:58:05;;;;;;;7.80;7.10;;;;;;;18.85;71.30;100275.31;5054811;28;20203;-82
2022/08/17 04:00:32;;;;;;;8.10;7.33;;;;;;;18.80;71.65;100280.34;5056716;28;20215;-83
2022/08/17 04:02:58;;;;;;;7.87;7.27;;;;;;;18.75;72.00;100290.75;5055703;28;20235;-82
2022/08/17 04:05:25;;;;;;;8.30;7.50;;;;;;;18.69;72.31;100278.75;5055361;28;20199;-82
2022/08/17 04:07:51;;;;;;;10.30;7.67;;;;;;;18.65;72.39;100290.84;5055427;28;20209;-82
2022/08/17 04:10:18;;;;;;;9.17;6.90;;;;;;;18.58;72.44;100293.31;5054959;28;20207;-83
2022/08/17 04:12:48;;;;;;;7.30;6.60;;;;;;;18.51;72.63;100291.38;5054773;28;20242;-83
2022/08/17 04:15:17;;;;;;;7.60;6.90;;;;;;;18.45;72.78;100290.16;5038336;28;20254;-83
2022/08/17 04:17:44;;;;;;;7.80;7.10;;;;;;;18.42;72.92;100287.78;5034494;28;20212;-82
2022/08/17 04:20:12;;;;;;;8.13;7.30;;;;;;;18.42;73.36;100285.09;5036374;28;20297;-84
2022/08/17 04:22:38;;;;;;;8.23;7.27;;;;;;;18.41;73.45;100302.28;5055230;28;20203;-82
2022/08/17 04:25:14;;;;;;;7.70;7.10;;;;;;;18.41;73.68;100294.19;5055063;28;20211;-82
2022/08/17 04:27:41;;;;;;;7.43;6.83;;;;;;;18.42;73.55;100298.59;5054361;28;20214;-82
2022/08/17 04:30:10;;;;;;;7.70;6.90;;;;;;;18.42;73.65;100295.88;5054670;28;20204;-83
2022/08/17 04:32:51;;;;;;;9.13;7.40;;;;;;;18.42;73.86;100295.88;5054935;28;20235;-82
2022/08/17 04:35:20;;;;;;;8.17;7.47;;;;;;;18.44;73.89;100303.81;5055457;28;20215;-82
2022/08/17 04:37:46;;;;;;;8.33;7.47;;;;;;;18.44;74.22;100301.97;5055370;28;20238;-84
2022/08/17 04:43:01;;;;;;;7.03;6.43;;;;;;;18.35;73.75;100298.34;5055885;28;20280;-82
2022/08/17 04:45:29;;;;;;;10.83;7.07;;;;;;;18.31;74.09;100306.88;5055823;28;20207;-83
2022/08/17 04:47:56;;;;;;;8.10;7.30;;;;;;;18.29;74.33;100298.09;5055003;28;20214;-83
2022/08/17 04:50:22;;;;;;;7.73;6.87;;;;;;;18.27;74.63;100310.94;5055555;28;20739;-82
2022/08/17 04:52:49;;;;;;;8.47;7.67;;;;;;;18.27;74.89;100317.13;5055217;28;20241;-83
2022/08/17 04:55:16;;;;;;;7.73;7.13;;;;;;;18.28;75.26;100315.28;5054532;28;20302;-82
2022/08/17 04:57:42;;;;;;;7.93;7.23;;;;;;;18.29;75.40;100314.28;5053451;28;20206;-82
2022/08/17 05:00:10;;;;;;;7.93;7.23;;;;;;;18.31;75.36;100314.97;5055149;28;20567;-82
2022/08/17 05:02:46;;;;;;;9.10;8.40;;;;;;;18.31;75.48;100317.66;5054716;28;20742;-82
2022/08/17 05:05:13;;;;;;;8.97;7.83;;;;;;;18.29;75.60;100316.97;5055032;28;20705;-82
2022/08/17 05:07:39;;;;;;;8.50;7.67;;;;;;;18.28;75.90;100318.81;5054334;28;20303;-83
2022/08/17 05:10:07;;;;;;;11.57;8.17;;;;;;;18.27;76.24;100327.09;5054957;28;20209;-82
2022/08/17 05:12:33;;;;;;;10.23;8.03;;;;;;;18.28;76.41;100328.75;5054383;28;20227;-82
2022/08/17 05:15:00;;;;;;;8.90;8.10;;;;;;;18.28;76.60;100328.75;5054821;28;20207;-82
2022/08/17 05:17:26;;;;;;;9.63;8.57;;;;;;;18.29;76.87;100335.84;5054280;28;20583;-82
2022/08/17 05:19:54;;;;;;;11.47;7.80;;;;;;;18.31;77.03;100339.25;5053908;28;20207;-83
2022/08/17 05:22:20;;;;;;;8.17;7.53;;;;;;;18.32;77.21;100332.84;5053701;28;20571;-84
2022/08/17 05:24:47;;;;;;;8.27;7.57;;;;;;;18.35;77.41;100343.34;5053811;28;20214;-82
2022/08/17 05:27:13;;;;;;;9.30;8.40;;;;;;;18.40;77.51;100346.41;5054054;28;20212;-82
2022/08/17 05:29:40;;;;;;;8.87;7.70;;;;;;;18.46;77.60;100343.09;5054127;28;20219;-82
2022/08/17 05:32:10;;;;;;;8.83;8.03;;;;;;;18.51;77.70;100348.88;5054205;28;20661;-82
2022/08/17 05:34:36;;;;;;;12.33;8.50;;;;;;;18.57;77.51;100350.94;5054008;28;20937;-82
2022/08/17 05:37:04;;;;;;;11.37;8.43;;;;;;;18.64;77.50;100343.09;5053544;28;20212;-83
2022/08/17 05:39:31;;;;;;;9.60;8.80;;;;;;;18.71;77.88;100347.72;5053780;28;20214;-83
2022/08/17 05:42:01;;;;;;;10.10;9.17;;;;;;;18.81;78.27;100346.78;5053755;28;20682;-83
2022/08/17 05:44:28;;;;;;;9.20;8.30;;;;;;;18.91;78.89;100342.97;5053396;28;20698;-82
2022/08/17 05:46:56;;;;;;;8.83;7.93;;;;;;;18.99;78.78;100351.13;5053484;28;20193;-83
2022/08/17 05:49:26;;;;;;;9.87;8.40;;;;;;;19.06;78.95;100348.63;5052755;28;20809;-83
2022/08/17 05:52:25;;;;;;;8.73;7.93;;;;;;;19.11;78.36;100351.72;5053389;28;20217;-83
2022/08/17 05:55:03;;;;;;;9.07;8.17;;;;;;;19.15;77.83;100350.41;5052993;28;20208;-83
2022/08/17 05:57:48;;;;;;;10.70;8.67;;;;;;;19.19;77.72;100349.06;5053613;28;20197;-83
2022/08/17 06:00:20;;;;;;;9.13;8.33;;;;;;;19.24;77.70;100349.44;5053871;28;20635;-82
2022/08/17 06:03:10;;;;;;;9.07;8.13;;;;;;;19.27;77.54;100338.31;5054104;28;20237;-83
2022/08/17 06:05:50;;;;;;;9.33;8.43;;;;;;;19.33;77.43;100339.53;5053635;28;20208;-82
2022/08/17 06:08:25;;;;;;;9.53;8.60;;;;;;;19.38;77.47;100329.06;5053587;28;20195;-83
2022/08/17 06:10:58;;;;;;;9.90;8.70;;;;;;;19.45;77.34;100340.94;5054172;28;20192;-82
2022/08/17 06:13:42;;;;;;;8.97;8.27;;;;;;;19.56;77.62;100342.53;5054122;28;20705;-83
2022/08/17 06:16:13;;;;;;;8.70;7.93;;;;;;;19.71;78.11;100340.88;5054004;28;20645;-83
2022/08/17 06:18:43;;;;;;;8.87;7.97;;;;;;;19.86;78.05;100341.13;5054365;28;20274;-83
2022/08/17 06:21:13;;;;;;;8.90;8.00;;;;;;;19.98;77.11;100339.81;5053558;28;20230;-82
2022/08/17 06:23:46;;;;;;;8.40;7.50;;;;;;;20.08;76.84;100338.63;5053586;28;20235;-82
2022/08/17 06:26:15;;;;;;;8.33;7.47;;;;;;;20.19;76.00;100336.63;5053555;28;20189;-82
2022/08/17 06:28:50;;;;;;;8.90;7.60;;;;;;;20.28;74.97;100333.75;5053749;28;20216;-82
2022/08/17 06:31:21;;;;;;;7.90;7.10;;;;;;;20.39;74.31;100330.78;5054196;28;20301;-82
2022/08/17 06:33:49;;;;;;;8.50;6.67;;;;;;;20.49;73.62;100337.88;5053614;28;20236;-82
2022/08/17 06:36:33;;;;;;;8.93;7.43;;;;;;;20.60;73.37;100332.97;5053209;28;20200;-83
2022/08/17 06:39:13;;;;;;;8.38;7.63;;;;;;;20.73;73.07;100327.91;5053030;28;20189;-83
2022/08/17 06:41:50;;;;;;;11.63;7.80;;;;;;;20.86;72.17;100327.38;5053215;28;20189;-83
2022/08/17 06:44:20;;;;;;;9.80;8.07;;;;;;;20.97;71.63;100326.16;5052757;28;20239;-83
2022/08/17 06:46:53;;;;;;;10.20;7.33;;;;;;;21.05;71.29;100327.00;5052470;28;20208;-83
2022/08/17 06:49:27;;;;;;;7.80;7.10;;;;;;;21.14;70.97;100328.66;5053027;28;20196;-82
2022/08/17 06:51:57;;;;;;;9.33;7.53;;;;;;;21.25;70.53;100327.50;5052970;28;20260;-83
2022/08/17 06:54:33;;;;;;;8.75;7.72;;;;;;;21.38;70.15;100318.81;5052619;28;20228;-83
2022/08/17 06:57:09;;;;;;;8.48;7.68;;;;;;;21.51;69.45;100326.38;5052457;28;20590;-83
2022/08/17 06:59:49;;;;;;;8.65;7.80;;;;;;;21.64;69.01;100329.41;5053156;28;20199;-83
2022/08/17 07:02:21;;;;;;;8.82;7.95;;;;;;;21.77;68.52;100325.09;5052658;28;20251;-84
2022/08/17 07:04:49;;;;;;;10.02;7.70;;;;;;;21.91;68.10;100334.31;5052495;28;20205;-83
2022/08/17 07:10:09;;;;;;;8.95;8.05;;;;;;;22.20;67.19;100330.97;5052419;28;20228;-84
2022/08/17 07:12:39;;;;;;;14.00;8.93;;;;;;;22.32;66.73;100334.97;5053739;28;20569;-84
2022/08/17 07:15:12;;;;;;;13.32;8.40;;;;;;;22.44;65.66;100327.22;5053445;28;20201;-82
2022/08/17 07:17:39;;;;;;;14.77;8.63;;;;;;;22.54;64.91;100335.13;5053638;28;20208;-82
2022/08/17 07:20:10;;;;;;;11.82;8.20;;;;;;;22.64;64.55;100331.13;5053905;28;20213;-82
2022/08/17 07:22:43;;;;;;;15.48;8.20;;;;;;;22.77;64.10;100334.09;5056607;28;20194;-83
2022/08/17 07:25:17;;;;;;;12.55;7.90;;;;;;;22.90;63.33;100340.78;5056670;28;20191;-83
2022/08/17 07:27:49;;;;;;;19.13;8.77;;;;;;;23.01;62.99;100337.63;5056315;28;20226;-82
2022/08/17 07:30:18;;;;;;;18.27;8.48;;;;;;;23.13;62.42;100341.56;5056050;28;20760;-83
2022/08/17 07:32:47;;;;;;;14.02;7.75;;;;;;;23.24;62.00;100343.84;5056118;28;20237;-82
2022/08/17 07:35:19;;;;;;;10.57;7.07;;;;;;;23.35;61.64;100346.06;5056215;28;20209;-82
2022/08/17 07:37:51;;;;;;;13.02;7.60;;;;;;;23.51;61.10;100345.03;5055611;28;20198;-82
2022/08/17 07:40:27;;;;;;;11.07;7.38;;;;;;;23.66;60.61;100335.03;5054876;28;20185;-82
2022/08/17 07:43:10;;;;;;;9.50;7.18;;;;;;;23.78;60.04;100338.97;5055504;28;20228;-83
2022/08/17 07:48:38;;;;;;;8.30;7.22;;;;;;;24.01;59.67;100333.34;5054999;28;20250;-82
2022/08/17 07:51:16;;;;;;;8.13;7.38;;;;;;;24.16;59.30;100336.91;5055279;28;20212;-82
2022/08/17 07:53:44;;;;;;;10.18;7.50;;;;;;;24.28;58.96;100341.84;5055623;28;20232;-82
2022/08/17 07:56:31;;;;;;;8.95;7.95;;;;;;;24.44;58.92;100341.59;5055342;28;20205;-81
2022/08/17 07:59:07;;;;;;;8.50;6.82;;;;;;;24.60;58.35;100341.34;5055018;28;20195;-82
2022/08/17 08:01:36;;;;;;;8.05;7.00;;;;;;;24.75;57.67;100347.53;5055006;28;20198;-82
2022/08/17 08:04:16;;;;;;;10.63;7.60;;;;;;;24.90;57.62;100350.19;5055304;28;20221;-82
2022/08/17 08:06:51;;;;;;;9.80;6.40;;;;;;;25.08;57.00;100338.84;5055070;28;20197;-82
2022/08/17 08:09:45;;;;;;;7.15;6.47;;;;;;;25.23;56.42;100342.28;5056627;28;20189;-82
2022/08/17 08:12:28;;;;;;;8.80;7.07;;;;;;;25.41;56.64;100339.06;5057743;28;20546;-83
2022/08/17 08:14:57;;;;;;;10.55;6.35;;;;;;;25.55;56.18;100346.25;5056832;28;20548;-83
2022/08/17 08:17:30;;;;;;;14.38;6.82;;;;;;;25.67;56.17;100346.53;5054479;28;20797;-84
2022/08/17 08:20:00;;;;;;;21.20;8.55;;;;;;;25.73;55.77;100341.13;5053760;28;20273;-83
2022/08/17 08:22:35;;;;;;;10.20;6.90;;;;;;;25.82;55.59;100344.50;5052984;28;20212;-83
2022/08/17 08:25:12;;;;;;;9.00;6.68;;;;;;;25.89;55.28;100337.22;5053619;28;20193;-82
2022/08/17 08:27:49;;;;;;;14.68;7.57;;;;;;;25.98;55.71;100343.34;5053482;28;20197;-84
2022/08/17 08:30:20;;;;;;;8.38;6.20;;;;;;;26.09;55.29;100348.19;5053829;28;20189;-82
2022/08/17 08:33:07;;;;;;;9.95;6.40;;;;;;;26.16;54.82;100349.88;5053282;28;20291;-84
2022/08/17 08:35:39;;;;;;;7.90;6.07;;;;;;;26.25;53.92;100353.28;5053310;28;20680;-84
2022/08/17 08:38:16;;;;;;;7.65;6.60;;;;;;;26.35;53.77;100352.91;5053170;28;20193;-84
2022/08/17 08:40:56;;;;;;;7.03;6.22;;;;;;;26.48;53.72;100350.22;5053504;28;20185;-84
2022/08/17 08:43:31;;;;;;;9.18;5.82;;;;;;;26.65;53.81;100348.75;5052865;28;20225;-83
2022/08/17 08:46:09;;;;;;;7.78;5.68;;;;;;;26.81;53.15;100355.72;5052957;28;20199;-82
2022/08/17 08:48:53;;;;;;;20.27;7.05;;;;;;;26.96;53.09;100345.44;5054442;28;20276;-83
2022/08/17 08:51:26;;;;;;;7.63;5.78;;;;;;;27.10;52.04;100351.72;5054489;28;20197;-83
2022/08/17 08:54:02;;;;;;;6.18;5.60;;;;;;;27.22;51.43;100344.56;5054449;28;20278;-83
2022/08/17 08:56:36;;;;;;;7.95;5.88;;;;;;;27.31;51.24;100338.66;5054676;28;20687;-84
2022/08/17 08:59:12;;;;;;;6.47;5.43;;;;;;;27.43;50.81;100351.66;5054005;28;20192;-83
2022/08/17 09:01:48;;;;;;;7.05;5.57;;;;;;;27.50;50.41;100344.28;5054077;28;20224;-82
2022/08/17 09:04:34;;;;;;;7.45;5.15;;;;;;;27.60;50.42;100347.44;5053758;28;20224;-83
2022/08/17 09:07:15;;;;;;;5.47;4.97;;;;;;;27.71;50.22;100344.03;5054226;28;20713;-83
2022/08/17 09:09:53;;;;;;;8.02;5.35;;;;;;;27.87;50.16;100342.72;5053963;28;20193;-83
2022/08/17 09:12:30;;;;;;;8.20;5.35;;;;;;;28.06;49.80;100350.00;5053585;28;20198;-82
2022/08/17 09:15:05;;;;;;;6.60;5.40;;;;;;;28.27;49.49;100346.13;5053700;28;20196;-83
2022/08/17 09:17:38;;;;;;;5.65;5.10;;;;;;;28.47;49.00;100343.28;5054335;28;20192;-83
2022/08/17 09:20:15;;;;;;;5.22;4.80;;;;;;;28.65;48.62;100344.19;5054284;28;20188;-83
2022/08/17 09:22:47;;;;;;;5.85;4.95;;;;;;;28.84;47.92;100341.53;5055011;28;20192;-84
2022/08/17 09:25:17;;;;;;;5.95;4.13;;;;;;;29.01;47.13;100345.41;5054240;28;20190;-83
2022/08/17 09:27:51;;;;;;;4.53;4.13;;;;;;;29.14;46.76;100339.78;5054892;28;20921;-83
2022/08/17 09:30:21;;;;;;;4.03;3.40;;;;;;;29.23;44.66;100332.09;5054008;28;20191;-84
2022/08/17 09:32:54;;;;;;;3.58;3.30;;;;;;;29.31;42.72;100332.63;5054294;28;20339;-83
2022/08/17 09:35:23;;;;;;;3.40;3.10;;;;;;;29.42;42.33;100341.22;5066429;28;20224;-83
2022/08/17 09:37:59;;;;;;;3.85;3.42;;;;;;;29.54;41.79;100339.41;5053812;28;20209;-83
2022/08/17 09:40:32;;;;;;;3.30;3.00;;;;;;;29.65;40.32;100335.88;5053173;28;20201;-83
2022/08/17 09:43:04;;;;;;;3.50;3.10;;;;;;;29.78;40.72;100340.38;5041661;28;20225;-84
2022/08/17 09:45:38;;;;;;;4.15;3.25;;;;;;;29.94;41.23;100337.81;5045099;28;20212;-83
2022/08/17 09:48:11;;;;;;;3.30;2.97;;;;;;;30.12;40.12;100330.66;5055355;28;20577;-84
2022/08/17 09:50:44;;;;;;;3.88;2.83;;;;;;;30.22;39.06;100326.28;5044240;28;20225;-81
2022/08/17 09:53:11;;;;;;;3.92;3.58;;;;;;;30.33;38.70;100333.72;5048106;28;20225;-83
2022/08/17 09:56:30;;;;;;;3.90;3.25;;;;;;;30.52;38.82;100329.00;5049666;28;20202;-82
2022/08/17 09:59:30;;;;;;;3.97;3.03;;;;;;;30.62;38.01;100325.72;5040249;28;20209;-82
2022/08/17 10:02:12;;;;;;;4.22;3.03;;;;;;;30.73;37.51;100338.63;5048600;28;20244;-84
2022/08/17 10:04:49;;;;;;;3.72;3.00;;;;;;;30.87;36.92;100328.25;5037957;28;20225;-85
2022/08/17 10:07:23;;;;;;;2.95;2.67;;;;;;;30.98;36.56;100325.53;5052282;28;20213;-84
2022/08/17 10:10:00;;;;;;;3.30;2.95;;;;;;;31.06;36.12;100322.41;5039543;28;20212;-84
2022/08/17 10:12:38;;;;;;;4.93;2.70;;;;;;;31.13;35.78;100316.00;5040947;28;20763;-85
2022/08/17 10:15:17;;;;;;;3.17;2.83;;;;;;;31.18;35.01;100324.34;5045982;28;20210;-85
2022/08/17 10:18:02;;;;;;;3.33;2.80;;;;;;;31.26;35.23;100315.72;5048895;28;20205;-83
2022/08/17 10:20:33;;;;;;;3.30;2.80;;;;;;;31.34;34.67;100313.47;5046234;28;20275;-83
2022/08/17 10:26:12;;;;;;;4.00;2.63;;;;;;;31.58;34.04;100310.66;5048108;28;20714;-84
2022/08/17 10:28:45;;;;;;;2.65;2.42;;;;;;;31.72;33.45;100288.13;5046311;28;20194;-84
2022/08/17 10:31:22;;;;;;;3.58;3.10;;;;;;;31.87;34.05;100289.53;5046897;28;20232;-82
2022/08/17 10:34:02;;;;;;;2.85;2.65;;;;;;;31.97;33.64;100293.31;5043091;28;20237;-83
2022/08/17 10:36:38;;;;;;;5.03;3.28;;;;;;;32.07;33.37;100295.41;5051711;28;20194;-83
2022/08/17 10:39:14;;;;;;;3.10;2.75;;;;;;;32.16;33.70;100299.47;5048195;28;20217;-83
2022/08/17 10:41:46;;;;;;;3.10;2.53;;;;;;;32.21;33.55;100296.84;5043541;28;20284;-82
2022/08/17 10:44:23;;;;;;;3.72;2.85;;;;;;;32.25;33.53;100291.66;5043379;28;20248;-83
2022/08/17 10:47:03;;;;;;;3.00;2.78;;;;;;;32.26;33.12;100298.84;5048258;28;20328;-82
2022/08/17 10:49:33;;;;;;;3.00;2.58;;;;;;;32.25;32.73;100297.16;5045510;28;20242;-82
2022/08/17 10:52:01;;;;;;;3.05;2.78;;;;;;;32.29;33.11;100288.16;5047976;28;20210;-84
2022/08/17 10:55:06;;;;;;;3.97;3.10;;;;;;;32.39;33.18;100291.09;5048844;28;20225;-83
2022/08/17 10:57:38;;;;;;;3.40;2.92;;;;;;;32.46;33.09;100293.69;5058059;28;20782;-83
2022/08/17 11:00:11;;;;;;;3.67;3.17;;;;;;;32.50;32.83;100283.00;5046499;28;20205;-84
2022/08/17 11:02:47;;;;;;;4.15;3.00;;;;;;;32.56;32.90;100290.28;5056524;28;20695;-83
2022/08/17 11:05:47;;;;;;;2.85;2.65;;;;;;;32.61;33.23;100290.34;5046638;28;20228;-83
2022/08/17 11:08:50;;;;;;;3.00;2.80;;;;;;;32.63;32.77;100294.53;5035968;28;20212;-85
2022/08/17 11:11:53;;;;;;;4.05;2.80;;;;;;;32.61;32.58;100282.06;5050549;28;20204;-84
2022/08/17 11:14:47;;;;;;;3.55;2.85;;;;;;;32.65;32.37;100286.84;5036102;28;20237;-83
2022/08/17 11:17:25;;;;;;;3.35;3.05;;;;;;;32.71;31.84;100285.00;5046287;28;20205;-82
2022/08/17 11:20:10;;;;;;;3.58;3.00;;;;;;;32.77;32.19;100273.03;5055657;28;20210;-84
2022/08/17 11:23:10;;;;;;;4.15;2.70;;;;;;;32.83;32.16;100272.00;5052323;28;20205;-83
2022/08/17 11:25:40;;;;;;;3.42;2.95;;;;;;;32.84;32.19;100270.91;4976293;28;20217;-83
2022/08/17 11:28:15;;;;;;;2.90;2.70;;;;;;;32.84;32.38;100279.19;5051777;28;20201;-84
2022/08/17 11:30:48;;;;;;;3.28;2.85;;;;;;;32.78;32.01;100267.22;5048382;28;20598;-83
2022/08/17 11:33:52;;;;;;;3.13;2.90;;;;;;;32.80;32.32;100271.66;5046335;28;20243;-85
2022/08/17 11:36:31;;;;;;;3.17;2.80;;;;;;;32.88;32.46;100266.56;5050492;28;20209;-84
2022/08/17 11:39:04;;;;;;;4.78;3.08;;;;;;;32.94;32.05;100270.25;5048344;28;20757;-85
2022/08/17 11:41:44;;;;;;;4.00;3.03;;;;;;;33.01;31.79;100268.97;5050175;28;20335;-85
2022/08/17 11:44:31;;;;;;;3.47;3.15;;;;;;;33.11;31.32;100269.13;5040772;28;20622;-84
2022/08/17 11:52:57;;;;;;;4.82;3.20;;;;;;;33.39;31.02;100259.03;5053223;28;20643;-81
2022/08/17 11:56:02;;;;;;;4.18;3.55;;;;;;;33.51;30.98;100268.00;5038343;28;20222;-82
2022/08/17 11:58:38;;;;;;;3.78;3.45;;;;;;;33.54;30.81;100256.44;5048071;28;20710;-81
2022/08/17 12:01:07;;;;;;;5.25;3.30;;;;;;;33.55;30.98;100269.16;5042478;28;20202;-85
2022/08/17 12:03:49;;;;;;;3.63;3.33;;;;;;;33.57;30.81;100261.47;5042660;28;20631;-86
2022/08/17 12:06:30;;;;;;;4.18;3.33;;;;;;;33.61;30.69;100257.09;5047130;28;20201;-83
2022/08/17 12:09:05;;;;;;;3.58;2.90;;;;;;;33.63;30.43;100256.84;5052772;28;20232;-82
2022/08/17 12:11:41;;;;;;;3.15;2.78;;;;;;;33.66;30.69;100253.56;5039417;28;20224;-84
2022/08/17 12:14:14;;;;;;;3.53;3.03;;;;;;;33.67;30.45;100244.19;5043977;28;20613;-83
2022/08/17 12:16:41;;;;;;;3.22;2.83;;;;;;;33.66;30.21;100253.56;5039223;28;20209;-81
2022/08/17 12:19:18;;;;;;;3.75;2.65;;;;;;;33.65;29.68;100252.75;5043853;28;20660;-80